sensor_id;sensor_type;location;lat;lon;timestamp;P1;durP1;ratioP1;P2;durP2;ratioP2
19329;SDS011;9799;48.214;16.388;2023-07-24T00:01:29;8.80;;;5.70;;
19329;SDS011;9799;48.214;16.388;2023-07-24T00:04:50;7.60;;;6.63;;
19329;SDS011;9799;48.214;16.388;2023-07-24T00:08:11;8.75;;;6.40;;
19329;SDS011;9799;48.214;16.388;2023-07-24T00:11:33;7.13;;;6.38;;
19329;SDS011;9799;48.214;16.388;2023-07-24T00:14:55;9.77;;;7.18;;
19329;SDS011;9799;48.214;16.388;2023-07-24T00:18:16;7.35;;;5.97;;
19329;SDS011;9799;48.214;16.388;2023-07-24T00:21:37;7.07;;;6.30;;
19329;SDS011;9799;48.214;16.388;2023-07-24T00:24:58;6.70;;;5.93;;
19329;SDS011;9799;48.214;16.388;2023-07-24T00:28:21;7.72;;;6.78;;
19329;SDS011;9799;48.214;16.388;2023-07-24T00:31:42;6.88;;;6.00;;
19329;SDS011;9799;48.214;16.388;2023-07-24T00:35:04;6.15;;;5.55;;
19329;SDS011;9799;48.214;16.388;2023-07-24T00:38:25;6.70;;;5.95;;
19329;SDS011;9799;48.214;16.388;2023-07-24T00:41:47;7.78;;;6.97;;
19329;SDS011;9799;48.214;16.388;2023-07-24T00:45:09;6.95;;;6.20;;
19329;SDS011;9799;48.214;16.388;2023-07-24T00:48:31;9.57;;;6.95;;
19329;SDS011;9799;48.214;16.388;2023-07-24T00:51:52;8.23;;;6.22;;
19329;SDS011;9799;48.214;16.388;2023-07-24T00:55:13;7.72;;;6.32;;
19329;SDS011;9799;48.214;16.388;2023-07-24T00:58:37;8.27;;;7.30;;
19329;SDS011;9799;48.214;16.388;2023-07-24T01:02:00;13.05;;;7.55;;
19329;SDS011;9799;48.214;16.388;2023-07-24T01:05:21;7.93;;;6.68;;
19329;SDS011;9799;48.214;16.388;2023-07-24T01:08:45;7.85;;;7.05;;
19329;SDS011;9799;48.214;16.388;2023-07-24T01:12:07;7.40;;;6.70;;
19329;SDS011;9799;48.214;16.388;2023-07-24T01:15:38;6.80;;;6.10;;
19329;SDS011;9799;48.214;16.388;2023-07-24T01:19:11;12.68;;;7.63;;
19329;SDS011;9799;48.214;16.388;2023-07-24T01:22:38;8.20;;;7.25;;
19329;SDS011;9799;48.214;16.388;2023-07-24T01:26:08;8.80;;;7.20;;
19329;SDS011;9799;48.214;16.388;2023-07-24T01:29:34;10.95;;;7.13;;
19329;SDS011;9799;48.214;16.388;2023-07-24T01:33:02;10.65;;;6.70;;
19329;SDS011;9799;48.214;16.388;2023-07-24T01:36:36;7.85;;;6.47;;
19329;SDS011;9799;48.214;16.388;2023-07-24T01:39:57;7.45;;;6.65;;
19329;SDS011;9799;48.214;16.388;2023-07-24T01:43:21;7.13;;;6.47;;
19329;SDS011;9799;48.214;16.388;2023-07-24T01:46:43;10.27;;;7.60;;
19329;SDS011;9799;48.214;16.388;2023-07-24T01:50:05;8.45;;;7.60;;
19329;SDS011;9799;48.214;16.388;2023-07-24T01:53:27;9.50;;;6.80;;
19329;SDS011;9799;48.214;16.388;2023-07-24T01:56:48;9.13;;;7.10;;
19329;SDS011;9799;48.214;16.388;2023-07-24T02:00:13;8.07;;;7.28;;
19329;SDS011;9799;48.214;16.388;2023-07-24T02:03:50;9.07;;;6.47;;
19329;SDS011;9799;48.214;16.388;2023-07-24T02:07:11;11.30;;;8.00;;
19329;SDS011;9799;48.214;16.388;2023-07-24T02:10:36;8.73;;;6.93;;
19329;SDS011;9799;48.214;16.388;2023-07-24T02:13:57;8.13;;;7.32;;
19329;SDS011;9799;48.214;16.388;2023-07-24T02:17:19;7.93;;;6.90;;
19329;SDS011;9799;48.214;16.388;2023-07-24T02:20:41;9.57;;;7.47;;
19329;SDS011;9799;48.214;16.388;2023-07-24T02:24:08;8.43;;;7.53;;
19329;SDS011;9799;48.214;16.388;2023-07-24T02:27:30;8.82;;;7.93;;
19329;SDS011;9799;48.214;16.388;2023-07-24T02:30:53;9.98;;;7.47;;
19329;SDS011;9799;48.214;16.388;2023-07-24T02:34:17;8.02;;;7.22;;
19329;SDS011;9799;48.214;16.388;2023-07-24T02:37:38;7.97;;;7.10;;
19329;SDS011;9799;48.214;16.388;2023-07-24T02:40:59;7.93;;;7.13;;
19329;SDS011;9799;48.214;16.388;2023-07-24T02:44:20;8.20;;;6.97;;
19329;SDS011;9799;48.214;16.388;2023-07-24T02:47:41;9.65;;;7.43;;
19329;SDS011;9799;48.214;16.388;2023-07-24T02:51:04;11.05;;;7.75;;
19329;SDS011;9799;48.214;16.388;2023-07-24T02:54:25;9.50;;;6.72;;
19329;SDS011;9799;48.214;16.388;2023-07-24T02:57:46;8.85;;;7.60;;
19329;SDS011;9799;48.214;16.388;2023-07-24T03:01:08;9.00;;;7.30;;
19329;SDS011;9799;48.214;16.388;2023-07-24T03:04:29;8.40;;;7.50;;
19329;SDS011;9799;48.214;16.388;2023-07-24T03:07:53;8.55;;;6.90;;
19329;SDS011;9799;48.214;16.388;2023-07-24T03:11:14;9.82;;;7.40;;
19329;SDS011;9799;48.214;16.388;2023-07-24T03:14:35;8.32;;;7.50;;
19329;SDS011;9799;48.214;16.388;2023-07-24T03:17:56;8.77;;;6.72;;
19329;SDS011;9799;48.214;16.388;2023-07-24T03:21:17;8.52;;;7.18;;
19329;SDS011;9799;48.214;16.388;2023-07-24T03:24:41;9.85;;;7.50;;
19329;SDS011;9799;48.214;16.388;2023-07-24T03:28:02;8.88;;;7.53;;
19329;SDS011;9799;48.214;16.388;2023-07-24T03:31:23;11.07;;;7.50;;
19329;SDS011;9799;48.214;16.388;2023-07-24T03:34:44;10.15;;;8.32;;
19329;SDS011;9799;48.214;16.388;2023-07-24T03:38:05;12.40;;;10.70;;
19329;SDS011;9799;48.214;16.388;2023-07-24T03:41:28;10.13;;;9.13;;
19329;SDS011;9799;48.214;16.388;2023-07-24T03:44:49;9.55;;;8.15;;
19329;SDS011;9799;48.214;16.388;2023-07-24T03:48:10;9.52;;;7.82;;
19329;SDS011;9799;48.214;16.388;2023-07-24T03:51:32;9.95;;;8.95;;
19329;SDS011;9799;48.214;16.388;2023-07-24T03:54:53;10.30;;;7.88;;
19329;SDS011;9799;48.214;16.388;2023-07-24T03:58:15;12.23;;;8.88;;
19329;SDS011;9799;48.214;16.388;2023-07-24T04:01:36;8.25;;;7.30;;
19329;SDS011;9799;48.214;16.388;2023-07-24T04:04:58;11.63;;;8.60;;
19329;SDS011;9799;48.214;16.388;2023-07-24T04:08:19;12.13;;;8.07;;
19329;SDS011;9799;48.214;16.388;2023-07-24T04:11:40;10.20;;;8.38;;
19329;SDS011;9799;48.214;16.388;2023-07-24T04:15:02;9.65;;;8.30;;
19329;SDS011;9799;48.214;16.388;2023-07-24T04:18:24;16.02;;;9.60;;
19329;SDS011;9799;48.214;16.388;2023-07-24T04:21:45;11.75;;;9.00;;
19329;SDS011;9799;48.214;16.388;2023-07-24T04:25:07;10.32;;;8.80;;
19329;SDS011;9799;48.214;16.388;2023-07-24T04:28:28;9.73;;;8.48;;
19329;SDS011;9799;48.214;16.388;2023-07-24T04:31:51;9.70;;;8.50;;
19329;SDS011;9799;48.214;16.388;2023-07-24T04:35:12;13.82;;;10.75;;
19329;SDS011;9799;48.214;16.388;2023-07-24T04:38:33;11.10;;;9.48;;
19329;SDS011;9799;48.214;16.388;2023-07-24T04:41:54;10.55;;;9.32;;
19329;SDS011;9799;48.214;16.388;2023-07-24T04:45:16;8.95;;;8.05;;
19329;SDS011;9799;48.214;16.388;2023-07-24T04:48:38;10.48;;;8.70;;
19329;SDS011;9799;48.214;16.388;2023-07-24T04:51:59;12.30;;;10.10;;
19329;SDS011;9799;48.214;16.388;2023-07-24T04:55:20;14.18;;;10.27;;
19329;SDS011;9799;48.214;16.388;2023-07-24T04:58:41;17.13;;;9.85;;
19329;SDS011;9799;48.214;16.388;2023-07-24T05:02:03;12.85;;;9.30;;
19329;SDS011;9799;48.214;16.388;2023-07-24T05:05:25;14.88;;;10.05;;
19329;SDS011;9799;48.214;16.388;2023-07-24T05:08:46;13.07;;;10.77;;
19329;SDS011;9799;48.214;16.388;2023-07-24T05:12:09;11.50;;;9.70;;
19329;SDS011;9799;48.214;16.388;2023-07-24T05:15:30;16.40;;;10.32;;
19329;SDS011;9799;48.214;16.388;2023-07-24T05:18:51;11.35;;;9.80;;
19329;SDS011;9799;48.214;16.388;2023-07-24T05:22:13;11.90;;;9.40;;
19329;SDS011;9799;48.214;16.388;2023-07-24T05:25:35;16.65;;;9.98;;
19329;SDS011;9799;48.214;16.388;2023-07-24T05:28:56;13.45;;;9.65;;
19329;SDS011;9799;48.214;16.388;2023-07-24T05:32:17;13.38;;;10.02;;
19329;SDS011;9799;48.214;16.388;2023-07-24T05:35:38;13.07;;;9.38;;
19329;SDS011;9799;48.214;16.388;2023-07-24T05:39:01;15.98;;;10.80;;
19329;SDS011;9799;48.214;16.388;2023-07-24T05:42:22;17.08;;;10.07;;
19329;SDS011;9799;48.214;16.388;2023-07-24T05:45:43;15.48;;;10.38;;
19329;SDS011;9799;48.214;16.388;2023-07-24T05:49:04;14.63;;;9.85;;
19329;SDS011;9799;48.214;16.388;2023-07-24T05:52:25;12.80;;;9.55;;
19329;SDS011;9799;48.214;16.388;2023-07-24T05:55:48;12.15;;;10.85;;
19329;SDS011;9799;48.214;16.388;2023-07-24T05:59:18;12.80;;;9.50;;
19329;SDS011;9799;48.214;16.388;2023-07-24T06:02:39;15.48;;;9.77;;
19329;SDS011;9799;48.214;16.388;2023-07-24T06:06:00;16.55;;;9.73;;
19329;SDS011;9799;48.214;16.388;2023-07-24T06:09:21;12.05;;;9.82;;
19329;SDS011;9799;48.214;16.388;2023-07-24T06:12:44;12.68;;;9.63;;
19329;SDS011;9799;48.214;16.388;2023-07-24T06:16:05;10.82;;;9.10;;
19329;SDS011;9799;48.214;16.388;2023-07-24T06:19:26;11.13;;;8.73;;
19329;SDS011;9799;48.214;16.388;2023-07-24T06:22:48;11.73;;;10.00;;
19329;SDS011;9799;48.214;16.388;2023-07-24T06:26:09;14.52;;;10.75;;
19329;SDS011;9799;48.214;16.388;2023-07-24T06:29:32;10.80;;;8.80;;
19329;SDS011;9799;48.214;16.388;2023-07-24T06:32:53;12.30;;;9.80;;
19329;SDS011;9799;48.214;16.388;2023-07-24T06:36:14;11.43;;;9.00;;
19329;SDS011;9799;48.214;16.388;2023-07-24T06:39:35;9.80;;;8.70;;
19329;SDS011;9799;48.214;16.388;2023-07-24T06:42:56;12.63;;;9.23;;
19329;SDS011;9799;48.214;16.388;2023-07-24T06:46:19;15.07;;;9.68;;
19329;SDS011;9799;48.214;16.388;2023-07-24T06:49:40;11.10;;;9.77;;
19329;SDS011;9799;48.214;16.388;2023-07-24T06:53:01;12.30;;;11.02;;
19329;SDS011;9799;48.214;16.388;2023-07-24T06:56:23;12.60;;;9.90;;
19329;SDS011;9799;48.214;16.388;2023-07-24T06:59:44;13.57;;;10.38;;
19329;SDS011;9799;48.214;16.388;2023-07-24T07:03:06;9.93;;;8.88;;
19329;SDS011;9799;48.214;16.388;2023-07-24T07:06:27;10.43;;;8.95;;
19329;SDS011;9799;48.214;16.388;2023-07-24T07:09:49;11.13;;;8.43;;
19329;SDS011;9799;48.214;16.388;2023-07-24T07:13:10;10.80;;;8.82;;
19329;SDS011;9799;48.214;16.388;2023-07-24T07:16:31;13.27;;;8.95;;
19329;SDS011;9799;48.214;16.388;2023-07-24T07:19:53;13.32;;;8.75;;
19329;SDS011;9799;48.214;16.388;2023-07-24T07:23:17;10.82;;;9.15;;
19329;SDS011;9799;48.214;16.388;2023-07-24T07:26:38;11.52;;;10.00;;
19329;SDS011;9799;48.214;16.388;2023-07-24T07:29:59;9.93;;;8.88;;
19329;SDS011;9799;48.214;16.388;2023-07-24T07:33:20;11.25;;;8.98;;
19329;SDS011;9799;48.214;16.388;2023-07-24T07:36:43;11.05;;;9.00;;
19329;SDS011;9799;48.214;16.388;2023-07-24T07:40:05;13.80;;;9.48;;
19329;SDS011;9799;48.214;16.388;2023-07-24T07:43:27;11.73;;;8.60;;
19329;SDS011;9799;48.214;16.388;2023-07-24T07:46:48;10.85;;;9.57;;
19329;SDS011;9799;48.214;16.388;2023-07-24T07:50:09;11.98;;;8.77;;
19329;SDS011;9799;48.214;16.388;2023-07-24T07:53:32;9.57;;;8.55;;
19329;SDS011;9799;48.214;16.388;2023-07-24T07:56:53;14.07;;;8.55;;
19329;SDS011;9799;48.214;16.388;2023-07-24T08:00:15;12.75;;;9.70;;
19329;SDS011;9799;48.214;16.388;2023-07-24T08:03:36;14.48;;;10.55;;
19329;SDS011;9799;48.214;16.388;2023-07-24T08:06:57;18.08;;;9.38;;
19329;SDS011;9799;48.214;16.388;2023-07-24T08:10:20;15.25;;;10.65;;
19329;SDS011;9799;48.214;16.388;2023-07-24T08:13:41;10.68;;;9.55;;
19329;SDS011;9799;48.214;16.388;2023-07-24T08:17:02;12.00;;;10.25;;
19329;SDS011;9799;48.214;16.388;2023-07-24T08:20:31;21.77;;;10.90;;
19329;SDS011;9799;48.214;16.388;2023-07-24T08:23:55;14.30;;;10.48;;
19329;SDS011;9799;48.214;16.388;2023-07-24T08:27:18;13.68;;;12.38;;
19329;SDS011;9799;48.214;16.388;2023-07-24T08:30:40;15.27;;;10.20;;
19329;SDS011;9799;48.214;16.388;2023-07-24T08:34:04;16.25;;;10.07;;
19329;SDS011;9799;48.214;16.388;2023-07-24T08:37:25;12.13;;;9.45;;
19329;SDS011;9799;48.214;16.388;2023-07-24T08:40:46;18.90;;;9.82;;
19329;SDS011;9799;48.214;16.388;2023-07-24T08:44:09;10.27;;;9.27;;
19329;SDS011;9799;48.214;16.388;2023-07-24T08:47:31;10.63;;;9.45;;
19329;SDS011;9799;48.214;16.388;2023-07-24T08:50:55;12.70;;;9.00;;
19329;SDS011;9799;48.214;16.388;2023-07-24T08:54:17;9.63;;;8.70;;
19329;SDS011;9799;48.214;16.388;2023-07-24T08:57:39;12.93;;;9.15;;
19329;SDS011;9799;48.214;16.388;2023-07-24T09:01:02;10.80;;;9.68;;
19329;SDS011;9799;48.214;16.388;2023-07-24T09:04:24;11.70;;;9.57;;
19329;SDS011;9799;48.214;16.388;2023-07-24T09:07:45;12.15;;;10.10;;
19329;SDS011;9799;48.214;16.388;2023-07-24T09:11:08;12.13;;;8.85;;
19329;SDS011;9799;48.214;16.388;2023-07-24T09:14:30;13.40;;;9.55;;
19329;SDS011;9799;48.214;16.388;2023-07-24T09:17:53;10.88;;;9.10;;
19329;SDS011;9799;48.214;16.388;2023-07-24T09:21:14;11.85;;;9.00;;
19329;SDS011;9799;48.214;16.388;2023-07-24T09:24:35;9.32;;;8.43;;
19329;SDS011;9799;48.214;16.388;2023-07-24T09:27:57;11.20;;;8.52;;
19329;SDS011;9799;48.214;16.388;2023-07-24T09:31:18;12.88;;;10.27;;
19329;SDS011;9799;48.214;16.388;2023-07-24T09:34:42;14.65;;;8.95;;
19329;SDS011;9799;48.214;16.388;2023-07-24T09:38:04;20.25;;;8.35;;
19329;SDS011;9799;48.214;16.388;2023-07-24T09:41:27;9.15;;;8.20;;
19329;SDS011;9799;48.214;16.388;2023-07-24T09:44:49;14.45;;;9.30;;
19329;SDS011;9799;48.214;16.388;2023-07-24T09:48:10;9.70;;;8.10;;
19329;SDS011;9799;48.214;16.388;2023-07-24T09:51:35;14.80;;;12.07;;
19329;SDS011;9799;48.214;16.388;2023-07-24T09:54:59;10.75;;;9.32;;
19329;SDS011;9799;48.214;16.388;2023-07-24T09:58:32;9.30;;;8.23;;
19329;SDS011;9799;48.214;16.388;2023-07-24T10:01:54;8.93;;;8.13;;
19329;SDS011;9799;48.214;16.388;2023-07-24T10:05:16;8.65;;;7.70;;
19329;SDS011;9799;48.214;16.388;2023-07-24T10:08:42;9.18;;;8.15;;
19329;SDS011;9799;48.214;16.388;2023-07-24T10:12:09;8.60;;;7.60;;
19329;SDS011;9799;48.214;16.388;2023-07-24T10:15:30;10.63;;;8.77;;
19329;SDS011;9799;48.214;16.388;2023-07-24T10:18:52;9.27;;;7.93;;
19329;SDS011;9799;48.214;16.388;2023-07-24T10:22:16;11.40;;;8.45;;
19329;SDS011;9799;48.214;16.388;2023-07-24T10:25:40;9.57;;;8.25;;
19329;SDS011;9799;48.214;16.388;2023-07-24T10:29:02;9.80;;;8.55;;
19329;SDS011;9799;48.214;16.388;2023-07-24T10:32:23;9.77;;;8.43;;
19329;SDS011;9799;48.214;16.388;2023-07-24T10:35:45;12.73;;;8.00;;
19329;SDS011;9799;48.214;16.388;2023-07-24T10:39:13;10.38;;;8.50;;
19329;SDS011;9799;48.214;16.388;2023-07-24T10:42:36;11.07;;;8.23;;
19329;SDS011;9799;48.214;16.388;2023-07-24T10:45:58;11.02;;;8.07;;
19329;SDS011;9799;48.214;16.388;2023-07-24T10:49:20;10.50;;;9.50;;
19329;SDS011;9799;48.214;16.388;2023-07-24T10:52:42;9.63;;;8.43;;
19329;SDS011;9799;48.214;16.388;2023-07-24T10:56:03;12.60;;;8.85;;
19329;SDS011;9799;48.214;16.388;2023-07-24T10:59:36;9.45;;;8.55;;
19329;SDS011;9799;48.214;16.388;2023-07-24T11:02:59;11.40;;;9.38;;
19329;SDS011;9799;48.214;16.388;2023-07-24T11:06:20;12.43;;;8.93;;
19329;SDS011;9799;48.214;16.388;2023-07-24T11:09:41;11.55;;;9.77;;
19329;SDS011;9799;48.214;16.388;2023-07-24T11:13:09;10.77;;;9.68;;
19329;SDS011;9799;48.214;16.388;2023-07-24T11:16:32;15.13;;;8.98;;
19329;SDS011;9799;48.214;16.388;2023-07-24T11:19:53;10.52;;;9.35;;
19329;SDS011;9799;48.214;16.388;2023-07-24T11:23:24;11.05;;;9.38;;
19329;SDS011;9799;48.214;16.388;2023-07-24T11:26:45;13.48;;;8.75;;
19329;SDS011;9799;48.214;16.388;2023-07-24T11:30:07;10.40;;;9.27;;
19329;SDS011;9799;48.214;16.388;2023-07-24T11:33:30;13.05;;;9.32;;
19329;SDS011;9799;48.214;16.388;2023-07-24T11:36:52;11.50;;;9.98;;
19329;SDS011;9799;48.214;16.388;2023-07-24T11:40:13;11.50;;;9.50;;
19329;SDS011;9799;48.214;16.388;2023-07-24T11:43:35;9.75;;;8.60;;
19329;SDS011;9799;48.214;16.388;2023-07-24T11:47:05;12.70;;;9.18;;
19329;SDS011;9799;48.214;16.388;2023-07-24T11:50:28;11.52;;;9.00;;
19329;SDS011;9799;48.214;16.388;2023-07-24T11:53:49;11.02;;;9.93;;
19329;SDS011;9799;48.214;16.388;2023-07-24T11:57:19;21.23;;;9.35;;
19329;SDS011;9799;48.214;16.388;2023-07-24T12:00:40;10.77;;;9.02;;
19329;SDS011;9799;48.214;16.388;2023-07-24T12:04:02;12.90;;;9.55;;
19329;SDS011;9799;48.214;16.388;2023-07-24T12:07:27;9.73;;;8.65;;
19329;SDS011;9799;48.214;16.388;2023-07-24T12:10:50;10.43;;;9.43;;
19329;SDS011;9799;48.214;16.388;2023-07-24T12:14:12;11.95;;;10.48;;
19329;SDS011;9799;48.214;16.388;2023-07-24T12:17:34;11.95;;;9.65;;
19329;SDS011;9799;48.214;16.388;2023-07-24T12:20:55;13.90;;;9.80;;
19329;SDS011;9799;48.214;16.388;2023-07-24T12:24:18;12.93;;;10.30;;
19329;SDS011;9799;48.214;16.388;2023-07-24T12:27:39;11.82;;;10.63;;
19329;SDS011;9799;48.214;16.388;2023-07-24T12:31:01;18.00;;;10.50;;
19329;SDS011;9799;48.214;16.388;2023-07-24T12:34:23;13.57;;;10.05;;
19329;SDS011;9799;48.214;16.388;2023-07-24T12:37:45;12.68;;;9.90;;
19329;SDS011;9799;48.214;16.388;2023-07-24T12:41:07;11.80;;;10.43;;
19329;SDS011;9799;48.214;16.388;2023-07-24T12:44:28;13.15;;;10.30;;
19329;SDS011;9799;48.214;16.388;2023-07-24T12:47:50;11.80;;;9.85;;
19329;SDS011;9799;48.214;16.388;2023-07-24T12:51:11;13.20;;;11.40;;
19329;SDS011;9799;48.214;16.388;2023-07-24T12:54:32;11.60;;;10.40;;
19329;SDS011;9799;48.214;16.388;2023-07-24T12:57:55;14.93;;;11.15;;
19329;SDS011;9799;48.214;16.388;2023-07-24T13:01:16;12.55;;;10.77;;
19329;SDS011;9799;48.214;16.388;2023-07-24T13:04:37;14.07;;;11.43;;
19329;SDS011;9799;48.214;16.388;2023-07-24T13:07:59;12.95;;;10.50;;
19329;SDS011;9799;48.214;16.388;2023-07-24T13:11:20;17.23;;;10.75;;
19329;SDS011;9799;48.214;16.388;2023-07-24T13:14:42;13.10;;;11.68;;
19329;SDS011;9799;48.214;16.388;2023-07-24T13:18:03;13.27;;;10.88;;
19329;SDS011;9799;48.214;16.388;2023-07-24T13:21:24;15.45;;;11.50;;
19329;SDS011;9799;48.214;16.388;2023-07-24T13:24:45;12.55;;;11.27;;
19329;SDS011;9799;48.214;16.388;2023-07-24T13:28:07;12.30;;;10.98;;
19329;SDS011;9799;48.214;16.388;2023-07-24T13:31:30;13.40;;;11.90;;
19329;SDS011;9799;48.214;16.388;2023-07-24T13:34:52;20.38;;;10.25;;
19329;SDS011;9799;48.214;16.388;2023-07-24T13:38:13;12.70;;;10.73;;
19329;SDS011;9799;48.214;16.388;2023-07-24T13:41:35;14.90;;;12.75;;
19329;SDS011;9799;48.214;16.388;2023-07-24T13:44:57;15.18;;;12.00;;
19329;SDS011;9799;48.214;16.388;2023-07-24T13:48:20;16.92;;;11.30;;
19329;SDS011;9799;48.214;16.388;2023-07-24T13:51:41;17.15;;;11.68;;
19329;SDS011;9799;48.214;16.388;2023-07-24T13:55:02;13.80;;;11.50;;
19329;SDS011;9799;48.214;16.388;2023-07-24T13:58:24;19.73;;;10.70;;
19329;SDS011;9799;48.214;16.388;2023-07-24T14:01:46;13.10;;;11.68;;
19329;SDS011;9799;48.214;16.388;2023-07-24T14:05:09;15.13;;;11.13;;
19329;SDS011;9799;48.214;16.388;2023-07-24T14:08:30;15.82;;;12.07;;
19329;SDS011;9799;48.214;16.388;2023-07-24T14:11:51;12.48;;;10.82;;
19329;SDS011;9799;48.214;16.388;2023-07-24T14:15:12;18.70;;;12.00;;
19329;SDS011;9799;48.214;16.388;2023-07-24T14:18:34;11.63;;;10.50;;
19329;SDS011;9799;48.214;16.388;2023-07-24T14:21:56;12.60;;;11.32;;
19329;SDS011;9799;48.214;16.388;2023-07-24T14:25:18;12.80;;;11.50;;
19329;SDS011;9799;48.214;16.388;2023-07-24T14:28:40;12.85;;;11.55;;
19329;SDS011;9799;48.214;16.388;2023-07-24T14:32:02;14.95;;;11.80;;
19329;SDS011;9799;48.214;16.388;2023-07-24T14:35:23;16.05;;;11.88;;
19329;SDS011;9799;48.214;16.388;2023-07-24T14:38:46;17.02;;;12.60;;
19329;SDS011;9799;48.214;16.388;2023-07-24T14:42:08;16.10;;;12.27;;
19329;SDS011;9799;48.214;16.388;2023-07-24T14:45:31;15.80;;;10.75;;
19329;SDS011;9799;48.214;16.388;2023-07-24T14:48:53;13.98;;;11.25;;
19329;SDS011;9799;48.214;16.388;2023-07-24T14:52:15;14.23;;;12.02;;
19329;SDS011;9799;48.214;16.388;2023-07-24T14:55:39;16.92;;;11.20;;
19329;SDS011;9799;48.214;16.388;2023-07-24T14:59:01;17.50;;;11.43;;
19329;SDS011;9799;48.214;16.388;2023-07-24T15:02:22;13.77;;;10.23;;
19329;SDS011;9799;48.214;16.388;2023-07-24T15:05:44;13.13;;;11.15;;
19329;SDS011;9799;48.214;16.388;2023-07-24T15:09:05;12.65;;;9.93;;
19329;SDS011;9799;48.214;16.388;2023-07-24T15:12:28;17.73;;;11.15;;
19329;SDS011;9799;48.214;16.388;2023-07-24T15:15:51;14.98;;;11.60;;
19329;SDS011;9799;48.214;16.388;2023-07-24T15:19:12;12.75;;;11.45;;
19329;SDS011;9799;48.214;16.388;2023-07-24T15:22:35;17.65;;;10.50;;
19329;SDS011;9799;48.214;16.388;2023-07-24T15:25:57;14.13;;;10.63;;
19329;SDS011;9799;48.214;16.388;2023-07-24T15:29:21;12.07;;;10.30;;
19329;SDS011;9799;48.214;16.388;2023-07-24T15:32:43;12.95;;;10.75;;
19329;SDS011;9799;48.214;16.388;2023-07-24T15:36:06;21.35;;;10.80;;
19329;SDS011;9799;48.214;16.388;2023-07-24T15:39:29;11.65;;;10.00;;
19329;SDS011;9799;48.214;16.388;2023-07-24T15:42:50;12.35;;;9.43;;
19329;SDS011;9799;48.214;16.388;2023-07-24T15:46:13;10.80;;;9.57;;
19329;SDS011;9799;48.214;16.388;2023-07-24T15:49:34;16.42;;;10.15;;
19329;SDS011;9799;48.214;16.388;2023-07-24T15:52:55;11.25;;;9.25;;
19329;SDS011;9799;48.214;16.388;2023-07-24T15:56:17;17.90;;;10.65;;
19329;SDS011;9799;48.214;16.388;2023-07-24T15:59:38;12.38;;;9.95;;
19329;SDS011;9799;48.214;16.388;2023-07-24T16:03:01;11.05;;;9.73;;
19329;SDS011;9799;48.214;16.388;2023-07-24T16:06:22;14.82;;;10.07;;
19329;SDS011;9799;48.214;16.388;2023-07-24T16:09:44;14.90;;;9.25;;
19329;SDS011;9799;48.214;16.388;2023-07-24T16:13:05;10.93;;;9.63;;
19329;SDS011;9799;48.214;16.388;2023-07-24T16:16:27;12.55;;;9.13;;
19329;SDS011;9799;48.214;16.388;2023-07-24T16:19:49;11.57;;;9.80;;
19329;SDS011;9799;48.214;16.388;2023-07-24T16:23:11;10.75;;;9.43;;
19329;SDS011;9799;48.214;16.388;2023-07-24T16:26:32;11.70;;;10.35;;
19329;SDS011;9799;48.214;16.388;2023-07-24T16:29:54;11.57;;;9.90;;
19329;SDS011;9799;48.214;16.388;2023-07-24T16:33:16;10.07;;;9.02;;
19329;SDS011;9799;48.214;16.388;2023-07-24T16:36:38;11.68;;;9.70;;
19329;SDS011;9799;48.214;16.388;2023-07-24T16:39:59;16.60;;;10.02;;
19329;SDS011;9799;48.214;16.388;2023-07-24T16:43:21;12.27;;;9.63;;
19329;SDS011;9799;48.214;16.388;2023-07-24T16:46:42;13.82;;;9.73;;
19329;SDS011;9799;48.214;16.388;2023-07-24T16:50:04;12.93;;;10.05;;
19329;SDS011;9799;48.214;16.388;2023-07-24T16:53:29;11.45;;;9.95;;
19329;SDS011;9799;48.214;16.388;2023-07-24T16:56:50;11.73;;;9.20;;
19329;SDS011;9799;48.214;16.388;2023-07-24T17:00:12;19.70;;;9.85;;
19329;SDS011;9799;48.214;16.388;2023-07-24T17:03:35;16.13;;;10.88;;
19329;SDS011;9799;48.214;16.388;2023-07-24T17:06:56;15.38;;;9.52;;
19329;SDS011;9799;48.214;16.388;2023-07-24T17:10:19;12.60;;;9.32;;
19329;SDS011;9799;48.214;16.388;2023-07-24T17:13:42;13.80;;;9.98;;
19329;SDS011;9799;48.214;16.388;2023-07-24T17:17:06;13.32;;;10.55;;
19329;SDS011;9799;48.214;16.388;2023-07-24T17:20:28;11.75;;;9.93;;
19329;SDS011;9799;48.214;16.388;2023-07-24T17:23:50;12.55;;;10.88;;
19329;SDS011;9799;48.214;16.388;2023-07-24T17:27:13;12.30;;;10.02;;
19329;SDS011;9799;48.214;16.388;2023-07-24T17:30:36;13.18;;;9.30;;
19329;SDS011;9799;48.214;16.388;2023-07-24T17:33:58;14.27;;;10.35;;
19329;SDS011;9799;48.214;16.388;2023-07-24T17:37:21;14.55;;;10.23;;
19329;SDS011;9799;48.214;16.388;2023-07-24T17:40:44;11.75;;;9.98;;
19329;SDS011;9799;48.214;16.388;2023-07-24T17:44:09;12.95;;;10.45;;
19329;SDS011;9799;48.214;16.388;2023-07-24T17:47:32;17.27;;;10.35;;
19329;SDS011;9799;48.214;16.388;2023-07-24T17:50:53;11.95;;;9.73;;
19329;SDS011;9799;48.214;16.388;2023-07-24T17:54:16;10.73;;;8.30;;
19329;SDS011;9799;48.214;16.388;2023-07-24T17:57:37;7.30;;;5.28;;
19329;SDS011;9799;48.214;16.388;2023-07-24T18:01:01;5.22;;;4.25;;
19329;SDS011;9799;48.214;16.388;2023-07-24T18:04:25;6.03;;;4.47;;
19329;SDS011;9799;48.214;16.388;2023-07-24T18:07:48;9.07;;;3.22;;
19329;SDS011;9799;48.214;16.388;2023-07-24T18:11:10;5.50;;;4.25;;
19329;SDS011;9799;48.214;16.388;2023-07-24T18:14:32;4.82;;;3.90;;
19329;SDS011;9799;48.214;16.388;2023-07-24T18:17:55;4.07;;;3.00;;
19329;SDS011;9799;48.214;16.388;2023-07-24T18:21:21;4.20;;;3.20;;
19329;SDS011;9799;48.214;16.388;2023-07-24T18:24:44;3.30;;;2.55;;
19329;SDS011;9799;48.214;16.388;2023-07-24T18:28:06;3.40;;;3.10;;
19329;SDS011;9799;48.214;16.388;2023-07-24T18:31:31;3.65;;;2.90;;
19329;SDS011;9799;48.214;16.388;2023-07-24T18:34:56;3.53;;;2.88;;
19329;SDS011;9799;48.214;16.388;2023-07-24T18:38:18;7.90;;;4.05;;
19329;SDS011;9799;48.214;16.388;2023-07-24T18:41:40;4.50;;;3.80;;
19329;SDS011;9799;48.214;16.388;2023-07-24T18:45:03;4.93;;;3.80;;
19329;SDS011;9799;48.214;16.388;2023-07-24T18:48:26;4.20;;;3.60;;
19329;SDS011;9799;48.214;16.388;2023-07-24T18:51:49;5.25;;;4.00;;
19329;SDS011;9799;48.214;16.388;2023-07-24T18:55:12;5.72;;;4.22;;
19329;SDS011;9799;48.214;16.388;2023-07-24T18:58:36;9.38;;;4.43;;
19329;SDS011;9799;48.214;16.388;2023-07-24T19:01:58;5.55;;;3.88;;
19329;SDS011;9799;48.214;16.388;2023-07-24T19:05:20;4.80;;;4.22;;
19329;SDS011;9799;48.214;16.388;2023-07-24T19:08:46;4.45;;;4.05;;
19329;SDS011;9799;48.214;16.388;2023-07-24T19:12:08;8.27;;;4.30;;
19329;SDS011;9799;48.214;16.388;2023-07-24T19:15:32;5.28;;;4.53;;
19329;SDS011;9799;48.214;16.388;2023-07-24T19:18:54;6.88;;;4.20;;
19329;SDS011;9799;48.214;16.388;2023-07-24T19:22:22;5.72;;;4.80;;
19329;SDS011;9799;48.214;16.388;2023-07-24T19:25:46;6.10;;;5.22;;
19329;SDS011;9799;48.214;16.388;2023-07-24T19:29:08;8.85;;;6.55;;
19329;SDS011;9799;48.214;16.388;2023-07-24T19:32:30;9.93;;;6.05;;
19329;SDS011;9799;48.214;16.388;2023-07-24T19:35:57;9.38;;;6.38;;
19329;SDS011;9799;48.214;16.388;2023-07-24T19:39:22;9.32;;;7.22;;
19329;SDS011;9799;48.214;16.388;2023-07-24T19:42:46;8.75;;;6.38;;
19329;SDS011;9799;48.214;16.388;2023-07-24T19:46:08;8.10;;;6.70;;
19329;SDS011;9799;48.214;16.388;2023-07-24T19:49:30;8.32;;;5.97;;
19329;SDS011;9799;48.214;16.388;2023-07-24T19:52:53;7.80;;;6.65;;
19329;SDS011;9799;48.214;16.388;2023-07-24T19:56:15;8.00;;;6.05;;
19329;SDS011;9799;48.214;16.388;2023-07-24T19:59:40;8.95;;;6.03;;
19329;SDS011;9799;48.214;16.388;2023-07-24T20:03:03;6.50;;;5.25;;